Terminal Aerodrome Forecast
Issued by NWS Twin Cities, MN

Home | Current Version | Previous Version | Text Only | Print | Product List | Glossary Off
Versions: 1 2 3 4 5 6 7 8 9 10 11 12 13 14 15 16 17 18

000
FTUS43 KMPX 261720
TAFSTC
TAF
KSTC 261720Z 2618/2718 03006KT P6SM OVC010
      TEMPO 2618/2619 OVC009
     FM271200 VRB03KT P6SM OVC020
     FM271500 03002KT P6SM SCT030 OVC100=

USA.gov is the U.S. government's official web portal to all federal, state and local government web resources and services.